Grand Mound, Iowa
Current Conditions -  °F | °C
As of 7:52 PM on Friday 21 Nov 2014 (Local Time) from KDVN Reporting Station
Overcast Overcast  
Wind Chill: 24°   Ceiling: 1900
Heat Index: 34°   Visibility: 10mi
Dew Point: 10°   Wind: 15mph
Humidity: 37%   Direction: 160°SSE
Pressure: 30.17"   Gusts: NA
Location:  41.82°N, 90.65°W
Report Text: KDVN 220152Z AUTO 16013KT 10SM OVC019 01/M12 A3017 RMK AO2 SLP229 T00111122
Loading
Personal Weather Stations






























Interactive Weather Map New forecast layout! Learn more

10-Day Weather Forecast

Advertisements
Track Severe Weather on mobile